Time;durP1;ratioP1;P1;durP2;ratioP2;P2;SDS_P1;SDS_P2;PMS_P1;PMS_P2;Temp;Humidity;BMP_temperature;BMP_pressure;BME280_temperature;BME280_humidity;BME280_pressure;Samples;Min_cycle;Max_cycle;Signal;HPM_P1;HPM_P2
2021/12/13 00:01:42;;;;;;;23.75;9.32;;;;;;;-2.38;72.79;101174.81;4908979;29;20048;-78
2021/12/13 00:04:28;;;;;;;33.10;11.13;;;;;;;-2.31;71.51;101189.72;4876564;29;20054;-80
2021/12/13 00:06:59;;;;;;;25.10;9.40;;;;;;;-2.34;72.42;101179.34;4876061;29;20044;-79
2021/12/13 00:09:27;;;;;;;28.88;9.95;;;;;;;-2.44;73.04;101168.53;4891969;29;20063;-78
2021/12/13 00:11:56;;;;;;;30.95;11.35;;;;;;;-2.46;72.27;101172.63;4890908;29;20300;-79
2021/12/13 00:14:27;;;;;;;30.80;10.45;;;;;;;-2.53;72.33;101162.81;4889757;29;20081;-78
2021/12/13 00:17:17;;;;;;;39.63;13.32;;;;;;;-2.54;72.58;101170.38;4895456;29;20075;-79
2021/12/13 00:19:52;;;;;;;30.30;9.95;;;;;;;-2.52;72.92;101164.56;4895504;29;20052;-78
2021/12/13 00:22:22;;;;;;;26.63;10.55;;;;;;;-2.55;72.80;101159.31;4892464;29;20048;-79
2021/12/13 00:24:50;;;;;;;30.20;10.85;;;;;;;-2.50;72.40;101163.00;4893140;29;20044;-81
2021/12/13 00:27:27;;;;;;;24.65;9.95;;;;;;;-2.55;72.83;101153.31;4872724;29;20044;-75
2021/12/13 00:30:08;;;;;;;32.00;11.93;;;;;;;-2.68;72.64;101141.41;4876435;29;20615;-76
2021/12/13 00:32:41;;;;;;;30.45;11.15;;;;;;;-2.61;72.69;101144.47;4893663;29;20052;-78
2021/12/13 00:35:16;;;;;;;34.05;11.73;;;;;;;-2.51;73.29;101166.34;4904025;29;20073;-77
2021/12/13 00:37:49;;;;;;;31.13;10.98;;;;;;;-2.48;73.06;101165.69;4901126;29;20045;-80
2021/12/13 00:40:23;;;;;;;21.23;8.45;;;;;;;-2.64;72.03;101148.47;4892202;29;20049;-81
2021/12/13 00:43:10;;;;;;;27.30;10.57;;;;;;;-2.54;72.67;101162.72;4892469;29;20041;-79
2021/12/13 00:45:48;;;;;;;29.50;10.20;;;;;;;-2.55;72.66;101177.16;4883875;29;20440;-78
2021/12/13 00:48:15;;;;;;;29.48;10.23;;;;;;;-2.63;72.71;101165.53;4891337;29;20045;-80
2021/12/13 00:50:48;;;;;;;29.70;12.18;;;;;;;-2.62;73.30;101157.97;4892707;29;20131;-79
2021/12/13 00:53:21;;;;;;;30.02;10.80;;;;;;;-2.88;73.28;101107.84;4891669;29;20056;-80
2021/12/13 00:55:48;;;;;;;35.30;11.48;;;;;;;-2.46;73.24;101164.97;4876447;29;20171;-78
2021/12/13 00:58:20;;;;;;;27.40;9.35;;;;;;;-2.51;72.35;101155.28;4891043;29;20040;-75
2021/12/13 01:01:00;;;;;;;44.95;14.32;;;;;;;-2.59;72.70;101149.69;4872409;29;20100;-77
2021/12/13 01:03:37;;;;;;;35.00;12.10;;;;;;;-2.58;73.01;101156.53;4886475;29;20055;-78
2021/12/13 01:06:41;;;;;;;34.67;12.57;;;;;;;-2.44;73.18;101160.88;4875933;29;20404;-78
2021/12/13 01:09:44;;;;;;;35.38;12.63;;;;;;;-2.30;73.48;101165.97;4898937;29;20036;-77
2021/12/13 01:12:17;;;;;;;32.22;11.65;;;;;;;-2.37;72.91;101143.44;4890825;29;20578;-79
2021/12/13 01:15:16;;;;;;;29.77;8.93;;;;;;;-2.28;72.40;101166.97;4893760;29;20507;-78
2021/12/13 01:20:32;;;;;;;29.83;10.93;;;;;;;-2.55;73.22;101154.19;4904505;29;20081;-78
2021/12/13 01:23:05;;;;;;;39.38;13.13;;;;;;;-2.55;73.03;101133.81;4904152;29;20045;-81
2021/12/13 01:25:49;;;;;;;44.75;15.00;;;;;;;-2.35;73.05;101167.38;4897116;29;20084;-78
2021/12/13 01:28:20;;;;;;;47.90;15.75;;;;;;;-2.51;72.66;101147.63;4904648;29;20040;-78
2021/12/13 01:30:53;;;;;;;51.75;16.60;;;;;;;-2.37;73.36;101128.13;4917962;29;20051;-78
2021/12/13 01:33:21;;;;;;;42.38;14.65;;;;;;;-2.12;73.22;101139.13;4900238;29;20064;-77
2021/12/13 01:35:51;;;;;;;38.92;13.90;;;;;;;-2.19;71.85;101125.88;4894473;29;20044;-77
2021/12/13 01:38:30;;;;;;;34.05;12.18;;;;;;;-2.17;72.89;101125.19;4895089;29;20414;-78
2021/12/13 01:40:57;;;;;;;36.13;13.20;;;;;;;-2.14;73.16;101127.03;4901077;29;20041;-78
2021/12/13 01:43:27;;;;;;;43.15;12.82;;;;;;;-2.05;72.55;101147.16;4895064;29;20101;-77
2021/12/13 01:45:56;;;;;;;38.33;13.07;;;;;;;-2.02;73.18;101145.69;4888679;29;20071;-78
2021/12/13 01:48:45;;;;;;;40.08;13.48;;;;;;;-2.19;72.44;101131.88;4894072;29;20052;-78
2021/12/13 01:51:16;;;;;;;40.95;14.35;;;;;;;-2.22;72.58;101116.34;4888113;29;20335;-78
2021/12/13 01:53:55;;;;;;;46.70;13.52;;;;;;;-2.17;72.44;101115.00;4909726;29;20044;-78
2021/12/13 01:59:17;;;;;;;41.65;12.25;;;;;;;-2.03;72.43;101135.38;4895437;29;20167;-82
2021/12/13 02:01:43;;;;;;;44.20;14.18;;;;;;;-2.17;72.48;101125.19;4909925;29;20055;-79
2021/12/13 02:04:13;;;;;;;41.60;12.75;;;;;;;-2.34;72.14;101108.81;4893008;29;20041;-78
2021/12/13 02:06:46;;;;;;;41.50;13.50;;;;;;;-2.22;72.16;101131.66;4902374;29;20064;-78
2021/12/13 02:09:18;;;;;;;45.80;13.77;;;;;;;-2.62;72.35;101070.47;4898119;29;20040;-78
2021/12/13 02:11:48;;;;;;;46.20;15.27;;;;;;;-2.30;72.67;101120.06;4890457;29;20523;-78
2021/12/13 02:14:17;;;;;;;47.35;13.90;;;;;;;-2.24;72.15;101137.47;4898803;29;20072;-79
2021/12/13 02:17:01;;;;;;;55.40;15.25;;;;;;;-2.30;72.36;101131.19;4895939;29;20180;-80
2021/12/13 02:19:34;;;;;;;52.25;15.50;;;;;;;-2.17;73.10;101129.41;4903663;29;20083;-78
2021/12/13 02:22:18;;;;;;;50.03;16.17;;;;;;;-2.13;72.65;101128.81;4912727;29;20049;-78
2021/12/13 02:24:45;;;;;;;57.95;16.58;;;;;;;-2.05;72.99;101127.66;4894643;29;21202;-79
2021/12/13 02:27:12;;;;;;;41.38;14.32;;;;;;;-1.97;72.15;101125.56;4894079;29;20119;-77
2021/12/13 02:29:38;;;;;;;53.53;16.02;;;;;;;-2.10;72.57;101100.94;4894876;29;20044;-80
2021/12/13 02:32:08;;;;;;;47.30;16.13;;;;;;;-1.91;72.41;101114.84;4876237;29;20093;-77
2021/12/13 02:34:37;;;;;;;51.75;14.93;;;;;;;-1.90;72.75;101114.06;4893835;29;20864;-78
2021/12/13 02:37:05;;;;;;;48.40;15.93;;;;;;;-1.91;72.50;101109.75;4892540;29;20063;-78
2021/12/13 02:39:45;;;;;;;50.40;14.82;;;;;;;-2.00;71.89;101102.41;4892257;29;20052;-79
2021/12/13 02:42:13;;;;;;;56.20;16.73;;;;;;;-1.93;72.27;101099.47;4891803;29;20095;-77
2021/12/13 02:44:51;;;;;;;50.08;16.92;;;;;;;-1.93;72.95;101096.91;4893669;29;20169;-79
2021/12/13 02:47:34;;;;;;;56.40;16.00;;;;;;;-1.94;72.47;101105.34;4894033;29;20108;-77
2021/12/13 02:50:01;;;;;;;50.42;17.38;;;;;;;-1.98;72.04;101118.69;4909868;29;20064;-79
2021/12/13 02:52:28;;;;;;;54.47;16.27;;;;;;;-2.19;72.37;101087.59;4893695;29;20055;-77
2021/12/13 02:54:59;;;;;;;56.85;16.00;;;;;;;-2.19;72.29;101072.31;4893878;29;20073;-77
2021/12/13 02:57:37;;;;;;;50.60;16.75;;;;;;;-1.88;72.64;101097.19;4892777;29;20099;-79
2021/12/13 03:00:29;;;;;;;43.05;14.82;;;;;;;-1.84;71.97;101092.38;4893348;29;20040;-79
2021/12/13 03:02:59;;;;;;;63.78;19.90;;;;;;;-1.79;72.33;101099.44;4913675;29;20048;-77
2021/12/13 03:05:33;;;;;;;58.92;21.38;;;;;;;-1.83;71.55;101106.91;4893371;29;20067;-78
2021/12/13 03:08:06;;;;;;;64.25;20.92;;;;;;;-1.94;72.39;101074.75;4893945;29;20434;-77
2021/12/13 03:10:39;;;;;;;57.08;19.23;;;;;;;-1.78;71.90;101099.53;4893173;29;20078;-76
2021/12/13 03:13:07;;;;;;;51.83;17.90;;;;;;;-1.84;72.31;101079.59;4894746;29;20080;-80
2021/12/13 03:15:34;;;;;;;57.00;15.73;;;;;;;-1.71;72.14;101090.59;4893562;29;20131;-81
2021/12/13 03:18:17;;;;;;;54.22;16.77;;;;;;;-1.58;72.51;101103.31;4894046;29;20068;-80
2021/12/13 03:20:49;;;;;;;52.00;16.08;;;;;;;-1.50;72.14;101092.69;4897261;29;20044;-77
2021/12/13 03:23:40;;;;;;;59.45;16.48;;;;;;;-1.49;71.77;101091.91;4908295;29;20036;-77
2021/12/13 03:26:46;;;;;;;52.70;16.98;;;;;;;-1.54;71.95;101058.41;4913405;29;20096;-79
2021/12/13 03:29:19;;;;;;;53.78;14.65;;;;;;;-1.66;71.93;101053.47;4891577;29;20052;-77
2021/12/13 03:31:53;;;;;;;48.63;15.80;;;;;;;-1.54;71.91;101084.84;4911691;29;20056;-80
2021/12/13 03:34:30;;;;;;;45.27;14.50;;;;;;;-1.75;71.17;101060.56;4894399;29;20160;-84
2021/12/13 03:37:16;;;;;;;44.13;14.00;;;;;;;-1.67;71.51;101070.44;4905308;29;20051;-78
2021/12/13 03:39:49;;;;;;;38.10;12.30;;;;;;;-1.77;71.64;101072.34;4896305;29;20100;-80
2021/12/13 03:42:24;;;;;;;41.70;13.77;;;;;;;-1.75;71.24;101075.88;4893824;29;20498;-81
2021/12/13 03:45:08;;;;;;;35.80;12.45;;;;;;;-1.79;71.28;101079.00;4892459;29;20432;-81
2021/12/13 03:47:38;;;;;;;34.83;12.20;;;;;;;-1.93;71.56;101056.09;4907517;29;20112;-78
2021/12/13 03:50:10;;;;;;;35.40;11.90;;;;;;;-1.66;72.19;101079.00;4894363;29;20044;-80
2021/12/13 03:52:41;;;;;;;35.45;11.70;;;;;;;-1.58;71.92;101082.88;4887955;29;20155;-79
2021/12/13 03:55:09;;;;;;;33.85;10.85;;;;;;;-1.71;71.13;101067.63;4893447;29;20040;-82
2021/12/13 03:57:42;;;;;;;35.70;12.00;;;;;;;-1.89;71.21;101037.63;4899594;29;20053;-79
2021/12/13 04:00:13;;;;;;;37.65;12.07;;;;;;;-1.59;71.98;101081.13;4905772;29;20048;-78
2021/12/13 04:02:40;;;;;;;34.85;10.98;;;;;;;-1.58;71.63;101074.34;4900332;29;20045;-78
2021/12/13 04:05:12;;;;;;;29.70;10.80;;;;;;;-1.69;71.31;101059.25;4910251;29;20060;-76
2021/12/13 04:07:50;;;;;;;31.17;11.30;;;;;;;-1.66;71.19;101071.34;4909597;29;20044;-75
2021/12/13 04:10:24;;;;;;;30.25;10.60;;;;;;;-1.67;71.48;101079.78;4907543;29;20072;-75
2021/12/13 04:12:54;;;;;;;27.95;9.75;;;;;;;-1.82;71.44;101060.16;4905698;29;20054;-76
2021/12/13 04:15:47;;;;;;;28.48;10.73;;;;;;;-1.92;70.98;101047.66;4920489;29;20048;-76
2021/12/13 04:18:29;;;;;;;33.90;10.82;;;;;;;-1.93;71.21;101039.88;4910532;29;20155;-78
2021/12/13 04:21:05;;;;;;;39.85;10.55;;;;;;;-1.98;71.40;101042.16;4909717;29;20055;-77
2021/12/13 04:23:34;;;;;;;31.35;11.95;;;;;;;-1.94;71.44;101046.66;4909402;29;20399;-75
2021/12/13 04:26:03;;;;;;;34.88;11.48;;;;;;;-1.91;71.43;101049.41;4907244;29;20108;-79
2021/12/13 04:28:39;;;;;;;31.13;10.25;;;;;;;-2.05;71.48;101029.81;4914212;29;20048;-80
2021/12/13 04:31:10;;;;;;;30.38;11.10;;;;;;;-1.97;71.45;101051.59;4899061;29;20069;-79
2021/12/13 04:33:49;;;;;;;32.47;11.60;;;;;;;-1.91;71.55;101053.63;4916662;29;20068;-77
2021/12/13 04:36:26;;;;;;;29.23;11.43;;;;;;;-1.99;71.01;101014.88;4898267;29;20095;-78
2021/12/13 04:38:58;;;;;;;34.58;11.60;;;;;;;-1.76;71.47;101043.47;4900923;29;21309;-76
2021/12/13 04:41:32;;;;;;;31.23;10.57;;;;;;;-1.84;71.00;101054.09;4914749;29;20056;-77
2021/12/13 04:44:04;;;;;;;26.10;9.90;;;;;;;-1.85;71.43;101031.91;4894829;29;20063;-78
2021/12/13 04:46:32;;;;;;;33.17;11.60;;;;;;;-1.96;71.76;100999.75;4892771;29;20044;-80
2021/12/13 04:49:11;;;;;;;29.45;10.00;;;;;;;-2.10;71.17;100990.41;4893275;29;20603;-77
2021/12/13 04:51:58;;;;;;;28.85;9.40;;;;;;;-2.04;71.54;101011.16;4890795;29;20052;-77
2021/12/13 04:54:26;;;;;;;26.55;9.40;;;;;;;-1.92;71.68;101052.75;4910988;29;20075;-78
2021/12/13 04:56:54;;;;;;;34.70;11.05;;;;;;;-1.94;70.55;101039.00;4898541;29;20052;-78
2021/12/13 04:59:20;;;;;;;31.67;9.82;;;;;;;-1.95;71.47;101042.34;4893468;29;20040;-79
2021/12/13 05:01:50;;;;;;;28.77;10.40;;;;;;;-2.02;71.73;101025.78;4898502;29;20032;-77
2021/12/13 05:04:16;;;;;;;34.60;10.40;;;;;;;-1.89;71.57;101036.75;4897897;29;20105;-77
2021/12/13 05:06:42;;;;;;;30.90;10.82;;;;;;;-1.84;71.44;101041.31;4920294;29;20071;-79
2021/12/13 05:09:12;;;;;;;34.22;10.50;;;;;;;-1.86;71.85;101025.03;4874911;29;20040;-78
2021/12/13 05:11:42;;;;;;;37.08;11.13;;;;;;;-1.80;71.38;101046.63;4903625;29;20068;-76
2021/12/13 05:14:09;;;;;;;31.13;10.10;;;;;;;-1.87;71.55;101041.13;4904812;29;20040;-78
2021/12/13 05:16:55;;;;;;;29.20;10.23;;;;;;;-1.76;71.81;101035.81;4894311;29;20136;-77
2021/12/13 05:19:39;;;;;;;26.13;9.55;;;;;;;-1.69;71.59;101030.31;4909738;29;20077;-76
2021/12/13 05:22:07;;;;;;;36.42;10.73;;;;;;;-1.75;71.59;101020.59;4895564;29;20430;-77
2021/12/13 05:24:42;;;;;;;30.70;9.38;;;;;;;-1.65;71.40;101028.81;4912326;29;20044;-79
2021/12/13 05:27:11;;;;;;;29.65;10.45;;;;;;;-1.70;71.13;101033.66;4899189;29;20154;-78
2021/12/13 05:29:42;;;;;;;31.52;10.15;;;;;;;-1.80;70.73;101042.41;4894554;29;20143;-76
2021/12/13 05:32:20;;;;;;;30.13;10.27;;;;;;;-1.81;70.89;101038.09;4893471;29;20526;-80
2021/12/13 05:34:48;;;;;;;35.45;11.30;;;;;;;-1.91;71.72;101035.75;4894490;29;20044;-79
2021/12/13 05:37:16;;;;;;;33.72;10.40;;;;;;;-2.02;71.15;101033.44;4895858;29;20048;-79
2021/12/13 05:40:03;;;;;;;32.85;11.25;;;;;;;-1.88;72.06;101038.50;4909683;29;20051;-79
2021/12/13 05:42:42;;;;;;;34.20;10.70;;;;;;;-1.78;71.50;101035.75;4895416;29;20076;-79
2021/12/13 05:45:12;;;;;;;31.58;10.82;;;;;;;-1.76;71.71;101035.81;4896998;29;20044;-76
2021/12/13 05:47:38;;;;;;;34.97;10.95;;;;;;;-1.74;71.38;101031.69;4898405;29;20055;-79
2021/12/13 05:50:07;;;;;;;37.03;11.43;;;;;;;-1.74;71.20;101045.31;4904980;29;20109;-78
2021/12/13 05:52:39;;;;;;;29.75;10.60;;;;;;;-1.65;71.78;101051.78;4926123;28;20053;-76
2021/12/13 05:55:12;;;;;;;33.67;11.38;;;;;;;-1.69;70.86;101054.16;4889163;29;20041;-77
2021/12/13 05:57:49;;;;;;;36.00;11.95;;;;;;;-1.68;71.19;101052.50;4897362;29;20574;-76
2021/12/13 06:00:21;;;;;;;33.45;10.90;;;;;;;-1.70;71.75;101038.75;4877339;29;20040;-78
2021/12/13 06:03:15;;;;;;;32.53;11.23;;;;;;;-1.68;71.23;101042.28;4895560;29;20040;-76
2021/12/13 06:05:48;;;;;;;31.80;10.10;;;;;;;-1.67;71.62;101044.91;4889987;29;20041;-75
2021/12/13 06:08:28;;;;;;;37.65;11.45;;;;;;;-1.78;71.50;101024.63;4876336;29;20113;-78
2021/12/13 06:11:03;;;;;;;29.50;10.65;;;;;;;-1.71;71.43;101031.88;4905421;29;20458;-78
2021/12/13 06:13:53;;;;;;;35.08;11.55;;;;;;;-1.68;71.44;101026.97;4896250;29;20123;-77
2021/12/13 06:16:23;;;;;;;38.58;11.55;;;;;;;-1.55;71.40;101049.88;4895592;29;20467;-77
2021/12/13 06:18:58;;;;;;;34.28;11.90;;;;;;;-1.55;71.99;101037.13;4865750;29;20040;-79
2021/12/13 06:21:49;;;;;;;42.60;12.30;;;;;;;-1.54;71.53;101043.09;4895482;29;20044;-74
2021/12/13 06:24:28;;;;;;;39.55;12.10;;;;;;;-1.72;71.38;101010.56;4880205;29;20486;-78
2021/12/13 06:27:09;;;;;;;43.63;12.20;;;;;;;-1.70;71.54;100995.34;4904300;29;20087;-77
2021/12/13 06:29:52;;;;;;;35.80;11.00;;;;;;;-1.63;70.88;101010.22;4878638;29;20044;-79
2021/12/13 06:32:57;;;;;;;33.88;10.90;;;;;;;-1.53;70.85;101052.50;4879123;29;20594;-79
2021/12/13 06:35:29;;;;;;;39.85;12.70;;;;;;;-1.60;71.17;101045.28;4895567;29;20044;-80
2021/12/13 06:37:58;;;;;;;36.65;11.63;;;;;;;-1.74;71.14;101027.44;4896434;29;20080;-77
2021/12/13 06:40:27;;;;;;;36.03;12.30;;;;;;;-1.81;71.56;101030.44;4896524;29;20037;-75
2021/12/13 06:42:56;;;;;;;33.72;11.73;;;;;;;-1.75;71.44;101030.78;4895918;29;20524;-78
2021/12/13 06:45:35;;;;;;;39.08;12.45;;;;;;;-1.73;71.46;101038.56;4879015;29;20135;-77
2021/12/13 06:48:05;;;;;;;35.03;11.50;;;;;;;-1.75;71.28;101027.38;4895725;29;20044;-78
2021/12/13 06:50:35;;;;;;;32.50;12.20;;;;;;;-1.78;71.64;101020.44;4874553;29;20051;-76
2021/12/13 06:53:19;;;;;;;34.67;11.88;;;;;;;-1.84;71.47;101018.34;4876568;29;20064;-81
2021/12/13 06:55:46;;;;;;;34.92;11.48;;;;;;;-1.70;71.36;101048.97;4895755;29;20092;-81
2021/12/13 06:58:25;;;;;;;41.00;12.07;;;;;;;-1.69;71.29;101045.63;4894369;29;20163;-76
2021/12/13 07:00:55;;;;;;;31.70;10.90;;;;;;;-1.74;71.76;101032.56;4911496;29;20064;-78
2021/12/13 07:03:26;;;;;;;31.38;11.25;;;;;;;-1.78;71.13;101015.31;4899669;29;20080;-80
2021/12/13 07:05:55;;;;;;;30.80;10.30;;;;;;;-1.65;71.25;101046.69;4876626;29;20076;-77
2021/12/13 07:08:21;;;;;;;33.55;12.32;;;;;;;-1.64;71.57;101031.44;4898427;29;20142;-77
2021/12/13 07:10:53;;;;;;;32.15;11.40;;;;;;;-1.56;71.21;101039.59;4867208;29;20060;-77
2021/12/13 07:13:20;;;;;;;34.17;11.95;;;;;;;-1.56;71.31;101032.78;4861379;29;20082;-77
2021/12/13 07:16:04;;;;;;;31.95;12.10;;;;;;;-1.50;71.85;101027.16;4894257;29;20562;-78
2021/12/13 07:18:56;;;;;;;38.58;12.35;;;;;;;-1.45;71.03;101030.88;4892211;29;20505;-77
2021/12/13 07:21:34;;;;;;;35.42;13.02;;;;;;;-1.54;71.38;101018.44;4893826;29;20487;-79
2021/12/13 07:24:17;;;;;;;43.30;13.27;;;;;;;-1.49;70.62;101026.38;4876040;29;20051;-76
2021/12/13 07:26:44;;;;;;;34.33;11.20;;;;;;;-1.50;71.10;101026.31;4911719;29;20071;-79
2021/12/13 07:29:13;;;;;;;43.83;15.50;;;;;;;-1.37;71.80;101044.09;4898904;29;20036;-79
2021/12/13 07:31:42;;;;;;;39.05;14.63;;;;;;;-1.31;70.68;101033.34;4897475;29;20037;-79
2021/12/13 07:34:20;;;;;;;39.92;13.02;;;;;;;-1.40;71.24;101028.59;4882059;29;20048;-79
2021/12/13 07:37:00;;;;;;;36.72;13.32;;;;;;;-1.45;70.51;101020.66;4880961;29;20063;-79
2021/12/13 07:39:29;;;;;;;33.60;13.02;;;;;;;-1.57;71.30;100994.41;4901342;29;20047;-78
2021/12/13 07:42:00;;;;;;;40.25;14.35;;;;;;;-1.55;71.27;100973.28;4916528;29;20518;-78
2021/12/13 07:44:45;;;;;;;36.10;12.93;;;;;;;-1.62;70.04;100976.25;4892916;29;20041;-81
2021/12/13 07:47:17;;;;;;;32.28;11.27;;;;;;;-1.13;70.97;101041.22;4904539;29;20040;-79
2021/12/13 07:49:50;;;;;;;36.45;13.48;;;;;;;-1.02;71.24;101047.88;4920956;29;20059;-78
2021/12/13 07:52:32;;;;;;;33.58;12.57;;;;;;;-1.18;70.18;101012.88;4917679;29;20044;-80
2021/12/13 07:55:17;;;;;;;37.58;13.02;;;;;;;-1.08;70.63;101027.94;4910536;29;20104;-80
2021/12/13 07:57:46;;;;;;;30.30;12.45;;;;;;;-1.16;70.60;101007.84;4907141;29;20112;-77
2021/12/13 08:00:26;;;;;;;35.10;13.05;;;;;;;-1.24;70.77;101010.84;4905827;29;20075;-80
2021/12/13 08:03:04;;;;;;;45.35;15.10;;;;;;;-1.04;69.82;101034.13;4898241;29;20036;-78
2021/12/13 08:05:38;;;;;;;34.42;12.50;;;;;;;-0.94;70.49;101021.06;4896631;29;20036;-77
2021/12/13 08:08:06;;;;;;;32.75;11.32;;;;;;;-1.08;70.15;101004.94;4920033;29;20067;-78
2021/12/13 08:10:42;;;;;;;32.30;11.68;;;;;;;-0.93;69.54;101038.16;4914067;29;20177;-78
2021/12/13 08:16:13;;;;;;;31.45;12.15;;;;;;;-1.12;70.15;101002.13;4904906;29;20419;-80
2021/12/13 08:18:44;;;;;;;35.42;12.57;;;;;;;-0.84;69.68;101039.50;4919869;29;20052;-78
2021/12/13 08:21:17;;;;;;;36.97;12.73;;;;;;;-0.75;70.07;101042.53;4883118;29;20130;-78
2021/12/13 08:23:47;;;;;;;34.95;12.52;;;;;;;-0.86;69.19;101044.50;4900529;29;20063;-78
2021/12/13 08:26:35;;;;;;;34.88;13.13;;;;;;;-0.99;69.97;101026.69;4894692;29;20156;-79
2021/12/13 08:29:08;;;;;;;34.25;11.73;;;;;;;-1.08;69.88;101007.47;4882191;29;20758;-79
2021/12/13 08:31:38;;;;;;;31.45;11.95;;;;;;;-0.85;69.88;101042.84;4896445;29;20191;-80
2021/12/13 08:34:14;;;;;;;29.02;11.80;;;;;;;-0.77;69.58;101039.91;4908549;29;20044;-78
2021/12/13 08:36:47;;;;;;;33.55;12.43;;;;;;;-0.78;69.52;101027.94;4913260;29;20124;-80
2021/12/13 08:39:37;;;;;;;28.27;11.48;;;;;;;-0.76;68.98;101043.34;4927842;29;20120;-80
2021/12/13 08:42:15;;;;;;;32.42;11.90;;;;;;;-0.88;69.26;101040.97;4909432;29;20080;-78
2021/12/13 08:44:45;;;;;;;37.50;13.57;;;;;;;-1.26;69.20;100976.66;4927608;29;20044;-78
2021/12/13 08:47:16;;;;;;;30.25;12.13;;;;;;;-0.80;69.88;101033.75;4875146;29;20071;-79
2021/12/13 08:49:51;;;;;;;30.10;11.38;;;;;;;-0.76;69.00;101031.47;4911728;29;20040;-81
2021/12/13 08:52:20;;;;;;;31.75;12.18;;;;;;;-0.69;70.02;101024.16;4905956;29;20088;-81
2021/12/13 08:54:55;;;;;;;29.85;11.23;;;;;;;-0.65;68.94;101024.41;4912873;29;20048;-78
2021/12/13 08:57:54;;;;;;;31.63;11.88;;;;;;;-0.67;68.90;101030.22;4927372;29;20064;-79
2021/12/13 09:00:20;;;;;;;33.38;11.45;;;;;;;-0.63;69.91;101035.59;4906067;29;20044;-79
2021/12/13 09:02:58;;;;;;;28.85;11.82;;;;;;;-0.55;69.00;101038.56;4902093;29;20449;-78
2021/12/13 09:05:30;;;;;;;24.92;11.02;;;;;;;-0.54;69.13;101031.75;4901386;29;20059;-78
2021/12/13 09:08:00;;;;;;;28.45;12.95;;;;;;;-0.70;69.26;100996.81;4898963;29;20052;-78
2021/12/13 09:10:45;;;;;;;29.88;12.07;;;;;;;-0.36;68.84;101026.81;4902297;29;20060;-79
2021/12/13 09:13:12;;;;;;;31.13;12.20;;;;;;;-0.37;69.53;101015.69;4884952;29;20060;-80
2021/12/13 09:15:39;;;;;;;30.40;12.10;;;;;;;-0.36;69.37;100996.09;4906544;29;20052;-79
2021/12/13 09:18:08;;;;;;;30.98;11.35;;;;;;;-0.36;69.21;100986.78;4909079;29;20081;-79
2021/12/13 09:20:46;;;;;;;27.17;12.65;;;;;;;-0.32;68.69;100986.13;4895011;29;20040;-79
2021/12/13 09:23:22;;;;;;;26.83;11.88;;;;;;;-0.07;68.82;100997.66;4913512;29;20060;-80
2021/12/13 09:26:05;;;;;;;28.65;12.23;;;;;;;-0.04;68.44;101000.41;4896195;29;20133;-79
2021/12/13 09:28:47;;;;;;;27.65;11.52;;;;;;;-0.24;68.59;100944.72;4897644;29;20096;-77
2021/12/13 09:31:32;;;;;;;31.42;11.80;;;;;;;-0.08;68.49;100970.31;4898612;29;20072;-80
2021/12/13 09:34:14;;;;;;;31.20;11.70;;;;;;;-0.17;68.74;100932.34;4897608;29;20129;-79
2021/12/13 09:36:42;;;;;;;32.15;11.80;;;;;;;0.13;68.38;100960.34;4896771;29;20482;-80
2021/12/13 09:39:24;;;;;;;30.17;12.43;;;;;;;0.27;68.12;100961.06;4897645;29;20047;-81
2021/12/13 09:42:07;;;;;;;26.35;12.00;;;;;;;0.44;68.40;100974.69;4895441;29;20040;-76
2021/12/13 09:44:58;;;;;;;48.10;21.10;;;;;;;0.40;67.48;100960.00;4880596;29;20818;-79
2021/12/13 09:47:50;;;;;;;52.35;21.58;;;;;;;0.52;67.88;100970.00;4897080;29;20045;-80
2021/12/13 09:50:56;;;;;;;47.65;21.30;;;;;;;0.62;68.53;100973.91;4898407;29;20130;-78
2021/12/13 09:53:32;;;;;;;40.83;17.23;;;;;;;0.51;67.68;100963.13;4898094;29;20049;-78
2021/12/13 09:56:01;;;;;;;33.42;14.55;;;;;;;0.44;67.09;100948.22;4895128;29;20422;-76
2021/12/13 09:58:38;;;;;;;35.85;15.18;;;;;;;0.42;68.00;100937.03;4911044;29;20048;-78
2021/12/13 10:01:13;;;;;;;35.42;15.70;;;;;;;0.49;67.12;100935.66;4897172;29;20044;-80
2021/12/13 10:04:04;;;;;;;31.35;13.77;;;;;;;0.60;67.86;100957.56;4880144;29;20044;-78
2021/12/13 10:06:38;;;;;;;30.23;14.43;;;;;;;0.73;68.32;100938.56;4897510;29;20052;-79
2021/12/13 10:09:34;;;;;;;32.38;14.60;;;;;;;0.92;67.87;100962.53;4878313;29;20052;-79
2021/12/13 10:12:03;;;;;;;34.65;15.23;;;;;;;0.87;67.45;100945.25;4893949;29;20048;-79
2021/12/13 10:14:34;;;;;;;31.75;15.05;;;;;;;0.88;67.99;100936.75;4911926;29;20531;-80
2021/12/13 10:17:00;;;;;;;31.75;13.82;;;;;;;1.09;67.78;100951.41;4883367;29;20076;-77
2021/12/13 10:19:44;;;;;;;32.20;14.38;;;;;;;1.06;66.98;100946.13;4913576;29;20525;-80
2021/12/13 10:22:14;;;;;;;30.23;13.95;;;;;;;1.02;67.59;100949.34;4894364;29;20068;-81
2021/12/13 10:24:43;;;;;;;37.08;15.23;;;;;;;1.00;67.50;100940.69;4918626;29;20075;-79
2021/12/13 10:27:12;;;;;;;36.05;15.68;;;;;;;0.94;67.63;100936.16;4895845;29;20061;-78
2021/12/13 10:29:40;;;;;;;30.10;14.57;;;;;;;0.95;66.83;100932.78;4902807;29;20048;-76
2021/12/13 10:32:10;;;;;;;32.95;14.05;;;;;;;0.93;67.13;100947.22;4912463;29;20060;-79
2021/12/13 10:34:41;;;;;;;29.25;12.57;;;;;;;0.91;67.45;100948.81;4888219;29;20040;-77
2021/12/13 10:37:15;;;;;;;48.58;21.85;;;;;;;0.95;67.49;100947.31;4895546;29;20056;-77
2021/12/13 10:39:50;;;;;;;28.35;12.23;;;;;;;1.03;67.83;100951.09;4879087;29;20040;-77
2021/12/13 10:42:32;;;;;;;28.50;11.63;;;;;;;1.01;67.73;100940.78;4895640;29;20172;-78
2021/12/13 10:45:00;;;;;;;24.33;11.43;;;;;;;1.01;67.12;100948.47;4892936;29;20048;-77
2021/12/13 10:47:31;;;;;;;26.95;11.45;;;;;;;0.95;67.11;100937.06;4900899;29;20032;-77
2021/12/13 10:50:01;;;;;;;30.40;11.57;;;;;;;0.86;67.51;100927.25;4897127;29;20066;-79
2021/12/13 10:52:33;;;;;;;24.58;10.95;;;;;;;1.01;67.29;100945.00;4891351;29;20033;-77
2021/12/13 10:55:08;;;;;;;30.15;12.00;;;;;;;0.91;67.25;100941.13;4907038;29;20414;-76
2021/12/13 10:57:39;;;;;;;30.27;12.32;;;;;;;1.00;67.22;100953.50;4919816;29;20116;-80
2021/12/13 11:00:26;;;;;;;24.20;11.15;;;;;;;1.07;67.85;100947.88;4898098;29;20067;-78
2021/12/13 11:03:02;;;;;;;25.30;11.93;;;;;;;1.05;67.42;100931.53;4894660;29;20044;-78
2021/12/13 11:05:28;;;;;;;27.42;11.52;;;;;;;1.07;67.20;100927.38;4893836;29;20134;-81
2021/12/13 11:07:58;;;;;;;24.48;10.80;;;;;;;1.19;67.28;100952.72;4877402;29;20108;-79
2021/12/13 11:10:40;;;;;;;28.05;12.13;;;;;;;1.08;67.22;100908.63;4893349;29;20079;-80
2021/12/13 11:13:06;;;;;;;28.17;12.60;;;;;;;1.08;67.40;100918.00;4912287;29;20044;-76
2021/12/13 11:15:37;;;;;;;24.17;11.07;;;;;;;1.17;67.48;100919.31;4886525;29;20135;-79
2021/12/13 11:18:11;;;;;;;23.58;11.52;;;;;;;1.38;68.03;100933.97;4894165;29;20168;-77
2021/12/13 11:20:48;;;;;;;26.27;12.00;;;;;;;1.31;67.31;100917.41;4912961;29;20048;-77
2021/12/13 11:23:16;;;;;;;25.48;11.85;;;;;;;1.33;67.45;100920.91;4899597;29;20582;-78
2021/12/13 11:25:47;;;;;;;27.70;11.23;;;;;;;1.48;67.10;100953.22;4896194;29;20047;-80
2021/12/13 11:28:14;;;;;;;21.48;11.35;;;;;;;1.52;67.16;100941.41;4875482;29;20052;-78
2021/12/13 11:30:42;;;;;;;29.20;12.30;;;;;;;1.40;67.07;100934.91;4877323;29;20040;-81
2021/12/13 11:33:09;;;;;;;23.42;11.60;;;;;;;1.42;66.78;100945.22;4910351;29;20450;-83
2021/12/13 11:36:19;;;;;;;28.33;11.98;;;;;;;1.39;67.02;100930.59;4893972;29;20055;-83
2021/12/13 11:39:18;;;;;;;29.23;13.15;;;;;;;1.39;66.93;100940.84;4881813;29;20050;-80
2021/12/13 11:41:59;;;;;;;25.52;11.82;;;;;;;1.37;67.05;100942.47;4911421;29;20053;-82
2021/12/13 11:44:35;;;;;;;28.85;11.13;;;;;;;1.32;66.85;100938.78;4909404;29;20064;-83
2021/12/13 11:47:22;;;;;;;28.63;11.65;;;;;;;1.28;66.96;100935.22;4864304;29;20071;-82
2021/12/13 11:49:48;;;;;;;26.83;12.60;;;;;;;1.13;67.52;100896.00;4894151;29;20104;-81
2021/12/13 11:52:57;;;;;;;29.67;12.45;;;;;;;1.39;67.05;100938.28;4893458;29;20559;-80
2021/12/13 11:56:04;;;;;;;26.48;11.25;;;;;;;1.31;66.90;100927.66;4892974;29;20044;-80
2021/12/13 11:58:44;;;;;;;26.70;12.95;;;;;;;1.29;66.80;100921.59;4891422;29;20056;-80